Time;durP1;ratioP1;P1;durP2;ratioP2;P2;SDS_P1;SDS_P2;PMS_P1;PMS_P2;Temp;Humidity;BMP_temperature;BMP_pressure;BME280_temperature;BME280_humidity;BME280_pressure;Samples;Min_cycle;Max_cycle;Signal;HPM_P1;HPM_P2
2022/05/30 00:02:22;;;;;;;4.80;1.30;;;8.30;99.90;;;;;;4965902;28;20055;-76
2022/05/30 00:04:48;;;;;;;3.03;1.13;;;8.30;99.90;;;;;;5014394;28;20914;-75
2022/05/30 00:07:13;;;;;;;12.25;2.42;;;8.30;99.90;;;;;;4949905;28;20046;-76
2022/05/30 00:09:39;;;;;;;4.50;1.52;;;8.30;99.90;;;;;;4965938;28;20057;-76
2022/05/30 00:12:05;;;;;;;2.88;1.00;;;8.40;99.90;;;;;;4983541;28;20043;-76
2022/05/30 00:14:31;;;;;;;5.70;2.00;;;8.30;99.90;;;;;;4981993;28;20475;-76
2022/05/30 00:16:57;;;;;;;3.25;1.15;;;8.30;99.90;;;;;;4949386;28;20133;-76
2022/05/30 00:19:23;;;;;;;5.40;1.55;;;8.30;99.90;;;;;;5014535;28;20573;-78
2022/05/30 00:21:49;;;;;;;2.88;1.15;;;8.30;99.90;;;;;;4976381;28;20070;-77
2022/05/30 00:24:15;;;;;;;4.10;1.15;;;8.30;99.90;;;;;;4956709;28;20053;-78
2022/05/30 00:26:40;;;;;;;3.97;1.33;;;8.20;99.90;;;;;;4964325;28;20054;-78
2022/05/30 00:29:07;;;;;;;5.35;1.30;;;8.20;99.90;;;;;;4966012;28;20418;-78
2022/05/30 00:31:35;;;;;;;3.40;1.23;;;8.20;99.90;;;;;;5014468;28;20047;-78
2022/05/30 00:34:01;;;;;;;3.60;1.65;;;8.10;99.90;;;;;;4949425;28;20110;-78
2022/05/30 00:36:27;;;;;;;3.08;0.90;;;8.10;99.90;;;;;;5013782;28;20051;-78
2022/05/30 00:38:55;;;;;;;4.10;1.48;;;8.10;99.90;;;;;;4997620;28;20057;-77
2022/05/30 00:41:21;;;;;;;3.47;0.73;;;8.10;99.90;;;;;;4973017;28;20496;-78
2022/05/30 00:43:48;;;;;;;2.78;0.80;;;8.10;99.90;;;;;;4986331;28;20075;-78
2022/05/30 00:46:16;;;;;;;1.80;0.90;;;8.00;99.90;;;;;;5011851;28;20054;-75
2022/05/30 00:48:50;;;;;;;2.40;0.77;;;8.00;99.90;;;;;;5013994;28;20091;-76
2022/05/30 00:51:26;;;;;;;3.45;1.15;;;8.00;99.90;;;;;;4984036;28;20042;-76
2022/05/30 00:53:56;;;;;;;3.72;0.90;;;7.90;99.90;;;;;;4995777;28;20078;-75
2022/05/30 00:56:24;;;;;;;1.77;0.82;;;7.90;99.90;;;;;;4965174;28;20054;-76
2022/05/30 00:58:51;;;;;;;3.45;0.77;;;7.90;99.90;;;;;;4986611;28;20518;-75
2022/05/30 01:01:19;;;;;;;2.33;0.90;;;7.80;99.90;;;;;;5013857;28;20043;-75
2022/05/30 01:06:51;;;;;;;1.90;0.80;;;7.70;99.90;;;;;;4987963;28;20046;-76
2022/05/30 01:09:25;;;;;;;3.45;0.77;;;7.70;99.90;;;;;;5006229;28;20046;-77
2022/05/30 01:12:00;;;;;;;3.95;0.80;;;7.60;99.90;;;;;;4997090;28;20043;-76
2022/05/30 01:14:31;;;;;;;1.58;0.70;;;7.60;99.90;;;;;;5012642;28;20042;-76
2022/05/30 01:16:58;;;;;;;1.63;0.80;;;7.60;99.90;;;;;;5014329;28;20066;-75
2022/05/30 01:19:41;;;;;;;1.35;0.60;;;7.50;99.90;;;;;;5008884;28;20058;-75
2022/05/30 01:22:14;;;;;;;2.70;0.63;;;7.50;99.90;;;;;;5006569;28;20062;-75
2022/05/30 01:25:22;;;;;;;2.13;0.68;;;7.40;99.90;;;;;;5005920;28;20057;-77
2022/05/30 01:28:08;;;;;;;3.40;0.77;;;7.40;99.90;;;;;;4977894;28;20047;-76
2022/05/30 01:30:37;;;;;;;2.47;0.90;;;7.50;99.90;;;;;;4996611;28;20546;-76
2022/05/30 01:33:03;;;;;;;1.85;0.80;;;7.40;99.90;;;;;;4996936;28;20050;-75
2022/05/30 01:35:29;;;;;;;2.50;1.00;;;7.40;99.90;;;;;;4999955;28;20057;-75
2022/05/30 01:37:59;;;;;;;2.88;0.80;;;7.40;99.90;;;;;;5007320;28;20506;-76
2022/05/30 01:40:26;;;;;;;2.03;0.80;;;7.40;99.90;;;;;;4970757;28;20061;-75
2022/05/30 01:42:55;;;;;;;1.73;0.75;;;7.30;99.90;;;;;;4996264;28;20049;-76
2022/05/30 01:45:23;;;;;;;2.28;0.80;;;7.30;99.90;;;;;;4986014;28;20046;-75
2022/05/30 01:47:49;;;;;;;5.00;1.73;;;7.20;99.90;;;;;;4999800;28;20042;-75
2022/05/30 01:50:15;;;;;;;2.97;0.73;;;7.20;99.90;;;;;;5005207;28;20577;-76
2022/05/30 01:52:41;;;;;;;1.95;0.88;;;7.20;99.90;;;;;;4968979;28;20054;-76
2022/05/30 01:55:07;;;;;;;2.10;0.68;;;7.10;99.90;;;;;;5014644;28;20523;-76
2022/05/30 01:57:33;;;;;;;1.30;0.70;;;7.10;99.90;;;;;;5009858;28;20051;-76
2022/05/30 01:59:59;;;;;;;4.03;0.88;;;7.20;99.90;;;;;;4995793;28;20423;-75
2022/05/30 02:02:24;;;;;;;2.08;1.05;;;7.10;99.90;;;;;;4966067;28;20090;-75
2022/05/30 02:04:52;;;;;;;3.47;0.82;;;7.00;99.90;;;;;;4979664;28;20598;-77
2022/05/30 02:07:19;;;;;;;1.83;0.85;;;6.90;99.90;;;;;;4969496;28;20511;-78
2022/05/30 02:09:44;;;;;;;2.17;0.80;;;7.00;99.90;;;;;;4954681;28;20085;-77
2022/05/30 02:12:11;;;;;;;1.88;0.95;;;6.70;99.90;;;;;;4947634;28;20050;-76
2022/05/30 02:14:37;;;;;;;2.97;1.75;;;6.60;99.90;;;;;;4999343;28;20050;-76
2022/05/30 02:17:04;;;;;;;3.05;1.35;;;6.60;99.90;;;;;;4959364;28;20047;-75
2022/05/30 02:19:37;;;;;;;2.30;0.88;;;6.50;99.90;;;;;;5004500;28;20105;-75
2022/05/30 02:22:03;;;;;;;3.67;0.93;;;6.40;99.90;;;;;;5002051;28;20051;-75
2022/05/30 02:24:29;;;;;;;2.88;1.00;;;6.40;99.90;;;;;;5003041;28;20418;-75
2022/05/30 02:26:54;;;;;;;2.00;0.90;;;6.30;99.90;;;;;;4947859;28;20489;-75
2022/05/30 02:29:20;;;;;;;2.17;1.00;;;6.30;99.90;;;;;;5011647;28;20055;-75
2022/05/30 02:31:46;;;;;;;2.88;0.90;;;6.30;99.90;;;;;;5012198;28;20074;-75
2022/05/30 02:36:56;;;;;;;4.35;1.40;;;6.20;99.90;;;;;;4989263;28;20050;-75
2022/05/30 02:39:25;;;;;;;4.15;1.25;;;6.20;99.90;;;;;;5000241;28;20100;-75
2022/05/30 02:41:52;;;;;;;2.58;1.20;;;6.20;99.90;;;;;;4987625;28;20577;-75
2022/05/30 02:44:20;;;;;;;3.15;1.25;;;6.20;99.90;;;;;;4975103;28;20049;-75
2022/05/30 02:46:52;;;;;;;3.45;1.23;;;6.20;99.90;;;;;;4990482;28;20255;-76
2022/05/30 02:49:18;;;;;;;3.08;1.33;;;6.20;99.90;;;;;;5005304;28;20045;-76
2022/05/30 02:51:44;;;;;;;5.03;1.42;;;6.20;99.90;;;;;;5011508;28;20046;-76
2022/05/30 02:54:11;;;;;;;5.28;1.48;;;6.20;99.90;;;;;;4994987;28;20081;-75
2022/05/30 02:56:38;;;;;;;3.03;1.40;;;6.20;99.90;;;;;;4979259;28;20051;-75
2022/05/30 02:59:04;;;;;;;3.10;1.48;;;6.30;99.90;;;;;;5011540;28;20047;-74
2022/05/30 03:01:31;;;;;;;4.55;1.60;;;6.10;99.90;;;;;;4995562;28;20055;-75
2022/05/30 03:04:02;;;;;;;3.42;1.80;;;6.10;99.90;;;;;;4978451;28;20046;-75
2022/05/30 03:06:28;;;;;;;3.72;1.40;;;6.20;99.90;;;;;;4986246;28;20046;-76
2022/05/30 03:08:54;;;;;;;3.22;2.00;;;6.20;99.90;;;;;;4997776;28;20115;-75
2022/05/30 03:11:20;;;;;;;3.90;1.60;;;6.20;99.90;;;;;;4987706;28;20124;-75
2022/05/30 03:13:45;;;;;;;4.70;1.77;;;6.20;99.90;;;;;;5003972;28;20046;-74
2022/05/30 03:16:11;;;;;;;4.28;1.60;;;6.20;99.90;;;;;;4990334;28;20161;-75
2022/05/30 03:18:37;;;;;;;4.63;1.65;;;6.20;99.90;;;;;;4972313;28;20081;-73
2022/05/30 03:21:05;;;;;;;3.33;1.60;;;6.30;99.90;;;;;;5012451;28;20065;-74
2022/05/30 03:23:31;;;;;;;5.18;1.98;;;6.40;99.90;;;;;;4992476;28;20098;-76
2022/05/30 03:25:56;;;;;;;3.60;1.60;;;6.50;99.90;;;;;;5009592;28;20097;-75
2022/05/30 03:28:22;;;;;;;3.38;1.90;;;6.50;99.90;;;;;;5003324;28;20046;-76
2022/05/30 03:30:48;;;;;;;4.88;1.60;;;6.50;99.90;;;;;;5016250;28;20458;-77
2022/05/30 03:33:14;;;;;;;2.65;1.40;;;6.50;99.90;;;;;;4968947;28;20547;-76
2022/05/30 03:35:39;;;;;;;5.85;2.10;;;6.50;99.90;;;;;;4994300;28;20042;-75
2022/05/30 03:38:06;;;;;;;5.25;1.60;;;6.50;99.90;;;;;;4999779;28;20050;-75
2022/05/30 03:40:33;;;;;;;3.20;1.60;;;6.50;99.90;;;;;;5009876;28;20058;-75
2022/05/30 03:42:58;;;;;;;5.05;1.75;;;6.50;99.90;;;;;;5002272;28;20047;-76
2022/05/30 03:45:25;;;;;;;5.72;1.90;;;6.50;99.90;;;;;;5015383;28;20053;-75
2022/05/30 03:47:50;;;;;;;3.58;1.88;;;6.50;99.90;;;;;;5001638;28;20155;-76
2022/05/30 03:50:24;;;;;;;2.33;1.50;;;6.40;99.90;;;;;;4990710;28;20055;-75
2022/05/30 03:52:50;;;;;;;2.25;1.48;;;6.40;99.90;;;;;;5007331;28;20091;-78
2022/05/30 03:55:19;;;;;;;4.30;1.80;;;6.40;99.90;;;;;;4997346;28;20078;-77
2022/05/30 03:57:45;;;;;;;6.00;1.80;;;6.40;99.90;;;;;;4990320;28;20497;-76
2022/05/30 04:00:18;;;;;;;7.18;1.52;;;6.40;99.90;;;;;;5013732;28;20045;-76
2022/05/30 04:02:47;;;;;;;4.28;1.80;;;6.40;99.90;;;;;;4998135;28;20126;-75
2022/05/30 04:05:14;;;;;;;2.80;1.60;;;6.30;99.90;;;;;;5014973;28;20050;-76
2022/05/30 04:07:40;;;;;;;3.85;1.80;;;6.30;99.90;;;;;;5013302;28;20462;-75
2022/05/30 04:10:06;;;;;;;3.25;1.63;;;6.30;99.90;;;;;;4982094;28;20054;-75
2022/05/30 04:12:32;;;;;;;3.83;1.45;;;6.30;99.90;;;;;;4966024;28;20047;-75
2022/05/30 04:14:59;;;;;;;2.95;1.60;;;6.30;99.90;;;;;;4986796;28;20089;-78
2022/05/30 04:17:26;;;;;;;3.38;2.00;;;6.40;99.90;;;;;;5005490;28;20053;-76
2022/05/30 04:19:52;;;;;;;5.63;2.00;;;6.40;99.90;;;;;;4997630;28;20058;-77
2022/05/30 04:22:18;;;;;;;3.45;1.75;;;6.40;99.90;;;;;;5005990;28;20077;-76
2022/05/30 04:24:44;;;;;;;6.68;2.08;;;6.40;99.90;;;;;;5004095;28;20070;-77
2022/05/30 04:27:10;;;;;;;4.93;1.90;;;6.40;99.90;;;;;;4982490;28;20137;-77
2022/05/30 04:29:36;;;;;;;5.70;1.83;;;6.50;99.90;;;;;;4965105;28;20057;-77
2022/05/30 04:32:03;;;;;;;3.63;1.90;;;6.50;99.90;;;;;;4981902;28;20039;-78
2022/05/30 04:34:30;;;;;;;6.90;1.95;;;6.60;99.90;;;;;;4964989;28;20130;-77
2022/05/30 04:36:56;;;;;;;4.40;2.10;;;6.60;99.90;;;;;;4981268;28;20053;-76
2022/05/30 04:39:22;;;;;;;5.60;2.22;;;6.70;99.90;;;;;;4965381;28;20058;-76
2022/05/30 04:41:47;;;;;;;6.18;2.13;;;6.90;99.90;;;;;;5016061;28;20050;-76
2022/05/30 04:44:13;;;;;;;7.55;2.30;;;6.80;99.90;;;;;;4984251;28;20107;-76
2022/05/30 04:46:39;;;;;;;4.72;2.20;;;6.90;99.90;;;;;;5008938;28;20043;-78
2022/05/30 04:49:05;;;;;;;6.68;1.80;;;6.90;99.90;;;;;;4996702;28;20054;-77
2022/05/30 04:51:31;;;;;;;3.58;1.80;;;6.90;99.90;;;;;;4955045;28;20076;-76
2022/05/30 04:53:56;;;;;;;3.72;1.63;;;6.90;99.90;;;;;;4964914;28;20053;-76
2022/05/30 04:56:22;;;;;;;3.92;1.80;;;7.00;99.90;;;;;;5013830;28;20153;-77
2022/05/30 04:58:49;;;;;;;3.40;1.67;;;7.00;99.90;;;;;;4948930;28;20050;-76
2022/05/30 05:01:15;;;;;;;4.70;2.03;;;7.00;99.90;;;;;;4981757;28;20063;-78
2022/05/30 05:03:42;;;;;;;3.78;1.73;;;7.10;99.90;;;;;;4968126;28;20078;-79
2022/05/30 05:06:11;;;;;;;4.10;1.88;;;7.10;99.90;;;;;;4957806;28;20050;-79
2022/05/30 05:08:50;;;;;;;5.60;2.70;;;7.10;99.90;;;;;;4964793;28;20050;-78
2022/05/30 05:11:29;;;;;;;3.70;1.90;;;7.20;99.90;;;;;;4997830;28;20062;-77
2022/05/30 05:13:55;;;;;;;3.72;1.70;;;7.20;99.90;;;;;;5002882;28;20136;-76
2022/05/30 05:16:24;;;;;;;2.72;1.52;;;7.20;99.90;;;;;;5013101;28;20054;-75
2022/05/30 05:18:50;;;;;;;3.33;1.80;;;7.20;99.90;;;;;;4980853;28;20047;-77
2022/05/30 05:21:24;;;;;;;4.47;1.60;;;7.20;99.90;;;;;;4987597;28;20142;-76
2022/05/30 05:23:50;;;;;;;6.20;1.50;;;7.20;99.90;;;;;;5016566;28;20125;-76
2022/05/30 05:26:17;;;;;;;3.38;1.60;;;7.30;99.90;;;;;;5004475;28;20082;-75
2022/05/30 05:28:44;;;;;;;2.88;1.52;;;7.40;99.90;;;;;;4997088;28;20540;-77
2022/05/30 05:31:14;;;;;;;5.63;1.92;;;7.40;99.90;;;;;;5013012;28;20135;-78
2022/05/30 05:33:39;;;;;;;5.78;1.90;;;7.40;99.90;;;;;;5014089;28;20102;-79
2022/05/30 05:36:05;;;;;;;3.15;1.45;;;7.50;99.90;;;;;;4995850;28;20073;-78
2022/05/30 05:38:31;;;;;;;2.92;1.50;;;7.50;99.90;;;;;;4948112;28;20045;-78
2022/05/30 05:40:57;;;;;;;4.00;1.67;;;7.50;99.90;;;;;;5013568;28;20094;-79
2022/05/30 05:43:23;;;;;;;3.40;1.75;;;7.50;99.90;;;;;;4971031;28;20057;-77
2022/05/30 05:45:48;;;;;;;4.78;2.30;;;7.50;99.90;;;;;;4948471;28;20050;-77
2022/05/30 05:48:14;;;;;;;6.03;1.70;;;7.50;99.90;;;;;;4997106;28;20039;-77
2022/05/30 05:50:42;;;;;;;4.97;1.73;;;7.50;99.90;;;;;;4981428;28;20065;-78
2022/05/30 05:53:08;;;;;;;4.22;1.83;;;7.50;99.90;;;;;;4964385;28;20051;-77
2022/05/30 05:55:34;;;;;;;3.00;1.83;;;7.50;99.90;;;;;;4968770;28;20046;-78
2022/05/30 05:58:00;;;;;;;4.78;1.80;;;7.50;99.90;;;;;;4964067;28;20114;-77
2022/05/30 06:00:26;;;;;;;5.10;1.90;;;7.50;99.90;;;;;;4963738;28;20081;-78
2022/05/30 06:02:52;;;;;;;4.25;1.98;;;7.60;99.90;;;;;;5012662;28;20117;-77
2022/05/30 06:05:18;;;;;;;3.72;2.15;;;7.60;99.90;;;;;;4964304;28;20077;-79
2022/05/30 06:07:44;;;;;;;4.63;1.90;;;7.60;99.90;;;;;;5012102;28;20073;-78
2022/05/30 06:10:12;;;;;;;3.95;2.10;;;7.60;99.90;;;;;;4988097;28;20514;-77
2022/05/30 06:12:42;;;;;;;4.22;1.80;;;7.60;99.90;;;;;;4980797;28;20090;-76
2022/05/30 06:15:09;;;;;;;3.13;1.73;;;7.70;99.90;;;;;;4980275;28;20058;-77
2022/05/30 06:17:38;;;;;;;3.17;1.50;;;7.70;99.90;;;;;;4980761;28;20411;-77
2022/05/30 06:20:05;;;;;;;5.18;2.15;;;7.80;99.90;;;;;;4995284;28;20593;-77
2022/05/30 06:22:30;;;;;;;4.25;2.05;;;7.90;99.90;;;;;;5009627;28;20050;-76
2022/05/30 06:24:56;;;;;;;3.40;1.77;;;8.00;99.90;;;;;;4968188;28;20039;-77
2022/05/30 06:27:22;;;;;;;4.47;1.67;;;8.10;99.90;;;;;;5012377;28;20139;-78
2022/05/30 06:29:49;;;;;;;3.33;1.73;;;8.20;99.90;;;;;;4995521;28;20047;-77
2022/05/30 06:32:14;;;;;;;4.63;1.73;;;8.40;99.90;;;;;;4995847;28;20046;-76
2022/05/30 06:34:40;;;;;;;3.15;1.52;;;8.50;99.90;;;;;;4979323;28;20043;-76
2022/05/30 06:37:08;;;;;;;2.97;1.60;;;8.60;99.90;;;;;;4963072;28;20082;-77
2022/05/30 06:39:34;;;;;;;3.78;1.58;;;8.80;99.90;;;;;;5011468;28;20525;-75
2022/05/30 06:42:00;;;;;;;3.00;1.80;;;8.80;99.90;;;;;;4996787;28;20046;-76
2022/05/30 06:44:25;;;;;;;3.65;1.58;;;8.90;99.90;;;;;;5003815;28;20129;-75
2022/05/30 06:46:51;;;;;;;3.05;1.20;;;9.00;99.90;;;;;;4995376;28;20086;-76
2022/05/30 06:49:17;;;;;;;3.40;1.70;;;9.10;99.90;;;;;;5005752;28;20098;-79
2022/05/30 06:51:44;;;;;;;5.40;1.75;;;9.10;99.90;;;;;;4995022;28;20046;-79
2022/05/30 06:54:09;;;;;;;4.55;1.67;;;9.20;99.90;;;;;;4965869;28;20046;-77
2022/05/30 06:58:11;;;;;;;3.83;1.52;;;9.30;99.90;;;;;;5000690;28;20046;-76
2022/05/30 06:59:26;;;;;;;3.25;1.55;;;9.40;99.90;;;;;;4993060;28;20495;-75
2022/05/30 07:01:52;;;;;;;3.78;1.67;;;9.50;99.90;;;;;;5011779;28;20058;-75
2022/05/30 07:04:18;;;;;;;3.42;1.63;;;9.60;99.90;;;;;;5011119;28;20487;-77
2022/05/30 07:06:45;;;;;;;2.75;1.42;;;9.70;99.90;;;;;;4963050;28;20082;-77
2022/05/30 07:09:11;;;;;;;2.25;1.50;;;9.90;99.90;;;;;;4995454;28;20057;-77
2022/05/30 07:11:39;;;;;;;2.25;1.30;;;10.10;99.90;;;;;;5011678;28;20061;-75
2022/05/30 07:14:12;;;;;;;3.55;1.40;;;10.20;99.90;;;;;;4977521;28;20038;-76
2022/05/30 07:16:39;;;;;;;2.00;0.90;;;10.30;99.90;;;;;;4978696;28;20054;-75
2022/05/30 07:19:07;;;;;;;2.22;0.85;;;10.30;99.90;;;;;;4982144;28;20511;-78
2022/05/30 07:21:33;;;;;;;2.30;0.70;;;10.30;99.90;;;;;;5008287;28;20050;-79
2022/05/30 07:23:59;;;;;;;1.27;0.60;;;10.30;99.90;;;;;;4999875;28;20042;-76
2022/05/30 07:26:24;;;;;;;1.17;0.50;;;10.30;99.90;;;;;;4962804;28;20050;-76
2022/05/30 07:28:53;;;;;;;1.83;1.00;;;10.40;99.90;;;;;;4978634;28;20519;-78
2022/05/30 07:31:21;;;;;;;1.77;0.80;;;10.50;99.90;;;;;;5010979;28;20057;-72
2022/05/30 07:33:48;;;;;;;3.00;1.15;;;10.60;99.90;;;;;;5009611;28;20046;-79
2022/05/30 07:36:27;;;;;;;2.03;0.85;;;10.80;99.90;;;;;;4995411;28;20054;-74
2022/05/30 07:38:53;;;;;;;2.63;0.82;;;11.00;99.90;;;;;;4981122;28;20159;-76
2022/05/30 07:41:20;;;;;;;1.75;0.88;;;11.20;99.90;;;;;;4969977;28;20039;-77
2022/05/30 07:43:47;;;;;;;2.17;0.70;;;11.30;99.90;;;;;;4981194;28;20057;-76
2022/05/30 07:46:15;;;;;;;2.40;0.80;;;11.50;99.90;;;;;;5006449;28;20069;-75
2022/05/30 07:48:41;;;;;;;2.03;0.82;;;11.70;99.90;;;;;;4993561;28;20411;-76
2022/05/30 07:51:09;;;;;;;2.25;0.60;;;11.80;99.90;;;;;;5011489;28;20133;-77
2022/05/30 07:53:36;;;;;;;1.33;0.65;;;11.90;99.90;;;;;;4994891;28;20186;-73
2022/05/30 07:56:11;;;;;;;1.23;0.60;;;11.90;99.90;;;;;;4986608;28;20132;-74
2022/05/30 07:58:37;;;;;;;1.85;0.57;;;12.00;99.90;;;;;;4985793;28;20058;-74
2022/05/30 08:01:05;;;;;;;3.13;0.80;;;12.20;99.90;;;;;;4997643;28;20046;-72
2022/05/30 08:03:31;;;;;;;2.25;0.63;;;13.30;99.90;;;;;;5007519;28;20051;-74
2022/05/30 08:06:26;;;;;;;2.70;0.80;;;12.40;99.90;;;;;;4978336;28;20407;-72
2022/05/30 08:08:52;;;;;;;1.92;0.75;;;12.30;99.90;;;;;;4994989;28;20142;-73
2022/05/30 08:11:22;;;;;;;1.70;0.60;;;12.20;99.90;;;;;;4978574;28;20463;-75
2022/05/30 08:13:48;;;;;;;2.25;0.60;;;12.00;99.90;;;;;;4991082;28;20039;-74
2022/05/30 08:16:18;;;;;;;1.10;0.60;;;11.80;99.90;;;;;;4988388;28;20042;-78
2022/05/30 08:18:44;;;;;;;1.60;0.70;;;11.80;99.90;;;;;;4990813;28;20041;-76
2022/05/30 08:21:09;;;;;;;1.08;0.60;;;11.90;99.90;;;;;;4994295;28;20057;-74
2022/05/30 08:23:35;;;;;;;1.20;0.60;;;12.00;99.90;;;;;;4982065;28;20189;-74
2022/05/30 08:26:01;;;;;;;1.08;0.50;;;11.90;99.90;;;;;;5012393;28;20046;-74
2022/05/30 08:28:28;;;;;;;0.82;0.47;;;11.70;99.90;;;;;;4981935;28;20497;-75
2022/05/30 08:30:53;;;;;;;1.50;0.60;;;11.50;99.90;;;;;;4980503;28;20070;-75
2022/05/30 08:33:21;;;;;;;1.23;0.70;;;11.40;99.90;;;;;;5012981;28;20046;-75
2022/05/30 08:35:57;;;;;;;2.90;0.60;;;11.30;99.90;;;;;;5014468;28;20047;-77
2022/05/30 08:38:23;;;;;;;1.90;0.80;;;11.20;99.90;;;;;;4987103;28;20110;-73
2022/05/30 08:43:49;;;;;;;1.88;0.77;;;11.10;99.90;;;;;;4961936;28;20462;-76
2022/05/30 08:46:23;;;;;;;1.50;0.80;;;11.10;99.90;;;;;;5011668;28;20051;-74
2022/05/30 08:49:22;;;;;;;1.75;0.60;;;11.20;99.90;;;;;;5013401;28;20039;-76
2022/05/30 08:52:13;;;;;;;1.42;0.63;;;11.10;99.90;;;;;;4981688;28;20105;-73
2022/05/30 08:55:06;;;;;;;1.95;0.60;;;11.20;99.90;;;;;;4996770;28;20039;-76
2022/05/30 08:58:13;;;;;;;2.20;0.60;;;11.50;99.90;;;;;;5015988;28;20115;-76
2022/05/30 09:00:54;;;;;;;0.85;0.50;;;11.70;99.90;;;;;;4983507;28;20120;-75
2022/05/30 09:03:28;;;;;;;1.20;0.52;;;12.10;99.90;;;;;;4999942;28;20050;-75
2022/05/30 09:06:02;;;;;;;0.43;0.32;;;12.30;99.90;;;;;;5009307;28;20054;-74
2022/05/30 09:08:31;;;;;;;1.15;0.40;;;12.50;99.90;;;;;;5000086;28;20578;-76
2022/05/30 09:11:02;;;;;;;2.10;0.50;;;12.70;99.90;;;;;;4989062;28;20169;-74
2022/05/30 09:13:42;;;;;;;1.40;0.43;;;12.80;99.90;;;;;;4977935;28;20055;-75
2022/05/30 09:16:24;;;;;;;1.00;0.60;;;12.70;99.90;;;;;;5012992;28;20051;-74
2022/05/30 09:18:52;;;;;;;0.90;0.65;;;12.60;99.90;;;;;;5013945;28;20447;-77
2022/05/30 09:21:20;;;;;;;1.58;0.50;;;12.50;99.90;;;;;;5012722;28;20082;-75
2022/05/30 09:23:46;;;;;;;0.85;0.50;;;12.40;99.90;;;;;;4996594;28;20066;-76
2022/05/30 09:26:21;;;;;;;0.70;0.50;;;12.20;99.90;;;;;;4985570;28;20133;-75
2022/05/30 09:28:49;;;;;;;2.80;0.60;;;12.10;99.90;;;;;;4999602;28;20517;-75
2022/05/30 09:31:20;;;;;;;1.60;0.60;;;12.00;99.90;;;;;;4990357;28;20068;-75
2022/05/30 09:33:50;;;;;;;0.73;0.50;;;11.90;99.90;;;;;;4980180;28;20050;-75
2022/05/30 09:36:34;;;;;;;2.83;0.95;;;11.90;99.90;;;;;;5013164;28;20114;-75
2022/05/30 09:39:16;;;;;;;2.55;0.75;;;11.90;99.90;;;;;;4998054;28;20058;-75
2022/05/30 09:41:41;;;;;;;0.80;0.50;;;11.90;99.90;;;;;;4991730;28;20073;-76
2022/05/30 09:44:25;;;;;;;1.23;0.50;;;11.80;99.90;;;;;;5002460;28;20074;-76
2022/05/30 09:47:01;;;;;;;1.77;0.50;;;11.70;99.90;;;;;;5000689;28;20544;-73
2022/05/30 09:49:41;;;;;;;1.67;0.80;;;11.50;99.90;;;;;;4999787;28;20054;-73
2022/05/30 09:52:32;;;;;;;0.93;0.57;;;11.40;99.90;;;;;;5001319;28;20042;-73
2022/05/30 09:54:59;;;;;;;1.33;0.70;;;11.30;99.90;;;;;;4980906;28;20043;-74
2022/05/30 09:57:40;;;;;;;2.70;0.60;;;11.30;99.90;;;;;;4980103;28;20043;-73
2022/05/30 10:00:10;;;;;;;1.40;0.70;;;11.30;99.90;;;;;;4985437;28;20101;-73
2022/05/30 10:02:38;;;;;;;1.40;0.57;;;11.30;99.90;;;;;;5007047;28;20118;-73
2022/05/30 10:05:29;;;;;;;1.10;0.60;;;11.30;99.90;;;;;;5007388;28;20049;-73
2022/05/30 10:08:01;;;;;;;2.03;0.60;;;11.40;99.90;;;;;;4983022;28;20051;-73
2022/05/30 10:10:29;;;;;;;2.83;0.80;;;11.40;99.90;;;;;;4986063;28;20113;-73
2022/05/30 10:13:01;;;;;;;2.22;0.60;;;11.50;99.90;;;;;;4991129;28;20096;-74
2022/05/30 10:15:37;;;;;;;1.60;1.00;;;11.50;99.90;;;;;;5008005;28;20226;-73
2022/05/30 10:18:17;;;;;;;1.45;0.60;;;11.60;99.90;;;;;;5007559;28;20069;-73
2022/05/30 10:20:54;;;;;;;1.23;0.60;;;11.70;99.90;;;;;;5002070;28;20046;-72
2022/05/30 10:30:04;;;;;;;1.13;0.40;;;11.90;99.90;;;;;;4994543;28;20546;-74
2022/05/30 10:33:01;;;;;;;0.60;0.35;;;12.00;99.90;;;;;;4982371;28;20049;-74
2022/05/30 10:35:31;;;;;;;1.40;0.40;;;12.10;99.90;;;;;;4981885;28;20051;-74
2022/05/30 10:38:03;;;;;;;0.68;0.40;;;12.20;99.90;;;;;;4982232;28;20634;-76
2022/05/30 10:40:46;;;;;;;0.68;0.40;;;12.30;99.90;;;;;;5012164;28;20062;-74
2022/05/30 10:43:41;;;;;;;1.00;0.38;;;12.30;99.90;;;;;;4998390;28;20046;-74
2022/05/30 10:46:37;;;;;;;1.90;0.35;;;12.40;99.90;;;;;;5014946;28;20466;-74
2022/05/30 10:49:09;;;;;;;1.33;0.40;;;12.40;99.90;;;;;;4985764;28;20082;-73
2022/05/30 10:52:05;;;;;;;0.75;0.30;;;12.40;99.90;;;;;;4979744;28;20134;-74
2022/05/30 10:55:12;;;;;;;0.68;0.35;;;12.60;99.90;;;;;;4992983;28;20421;-74
2022/05/30 10:57:39;;;;;;;0.40;0.32;;;12.80;99.90;;;;;;4949476;28;20094;-74
2022/05/30 11:00:13;;;;;;;0.73;0.30;;;12.90;99.90;;;;;;4981185;28;20082;-74
2022/05/30 11:02:45;;;;;;;0.40;0.30;;;13.20;99.90;;;;;;4994719;28;20105;-74
2022/05/30 11:05:22;;;;;;;0.80;0.40;;;13.30;99.90;;;;;;5014178;28;20494;-74
2022/05/30 11:08:11;;;;;;;0.93;0.40;;;13.30;99.90;;;;;;4984263;28;20043;-76
2022/05/30 11:10:44;;;;;;;1.13;0.57;;;13.20;99.90;;;;;;4986200;28;20086;-75
2022/05/30 11:13:24;;;;;;;0.70;0.40;;;13.10;99.90;;;;;;5004509;28;20046;-75
2022/05/30 11:16:22;;;;;;;0.52;0.38;;;13.00;99.90;;;;;;4980302;28;20047;-75
2022/05/30 11:19:07;;;;;;;1.35;0.50;;;13.00;99.90;;;;;;5011334;28;20074;-75
2022/05/30 11:21:43;;;;;;;1.63;0.45;;;12.90;99.90;;;;;;5010377;28;20101;-75
2022/05/30 11:24:09;;;;;;;0.88;0.50;;;13.00;99.90;;;;;;4997451;28;20057;-76
2022/05/30 11:26:54;;;;;;;1.42;0.52;;;13.00;99.90;;;;;;4981378;28;20048;-75
2022/05/30 11:29:39;;;;;;;1.05;0.45;;;13.00;99.90;;;;;;5004990;28;20062;-75
2022/05/30 11:32:43;;;;;;;0.90;0.40;;;13.10;99.90;;;;;;4978454;28;20043;-75
2022/05/30 11:35:24;;;;;;;0.60;0.40;;;13.30;99.90;;;;;;4991920;28;20038;-74
2022/05/30 11:37:57;;;;;;;0.70;0.40;;;13.50;99.90;;;;;;4980811;28;20423;-76
2022/05/30 11:40:30;;;;;;;0.70;0.40;;;13.60;99.90;;;;;;5010981;28;20047;-74
2022/05/30 11:43:21;;;;;;;0.90;0.40;;;13.70;99.90;;;;;;5010608;28;20098;-76
2022/05/30 11:46:03;;;;;;;1.33;0.52;;;13.70;99.90;;;;;;4978421;28;20043;-77
2022/05/30 11:48:49;;;;;;;0.88;0.40;;;13.60;99.90;;;;;;5010900;28;20058;-77
2022/05/30 11:51:40;;;;;;;1.70;0.60;;;13.70;99.90;;;;;;5006237;28;20057;-79
2022/05/30 11:54:15;;;;;;;0.98;0.43;;;13.80;99.90;;;;;;5000999;28;20046;-78
2022/05/30 11:57:04;;;;;;;0.65;0.40;;;13.80;99.90;;;;;;5014102;28;20063;-78
2022/05/30 11:59:56;;;;;;;0.80;0.40;;;13.80;99.90;;;;;;4965088;28;20282;-76
2022/05/30 12:02:54;;;;;;;1.42;0.50;;;13.70;99.90;;;;;;4984265;28;20115;-76
2022/05/30 12:05:19;;;;;;;1.17;0.50;;;13.60;99.90;;;;;;5014584;28;20085;-76
2022/05/30 12:08:26;;;;;;;0.47;0.40;;;13.40;99.90;;;;;;5013778;28;20492;-76
2022/05/30 12:11:36;;;;;;;0.50;0.30;;;13.20;99.90;;;;;;5014273;28;20078;-76
2022/05/30 12:14:29;;;;;;;1.85;0.55;;;13.10;99.90;;;;;;4997897;28;20515;-76
2022/05/30 12:17:33;;;;;;;1.23;0.50;;;13.00;99.90;;;;;;4982795;28;20418;-77
2022/05/30 12:25:54;;;;;;;1.70;0.40;;;12.70;99.90;;;;;;5013357;28;20043;-76
2022/05/30 12:28:29;;;;;;;0.68;0.40;;;12.60;99.90;;;;;;5014435;28;20055;-75
2022/05/30 12:31:06;;;;;;;1.20;0.40;;;12.60;99.90;;;;;;5014152;28;20055;-77
2022/05/30 12:33:32;;;;;;;0.65;0.40;;;12.60;99.90;;;;;;4980668;28;20147;-76
2022/05/30 12:36:10;;;;;;;2.00;0.70;;;12.60;99.90;;;;;;5009953;28;20062;-80
2022/05/30 12:38:55;;;;;;;1.52;0.70;;;12.60;99.90;;;;;;5013314;28;20062;-76
2022/05/30 12:41:21;;;;;;;1.40;0.52;;;12.60;99.90;;;;;;5013627;28;20060;-79
2022/05/30 12:43:47;;;;;;;1.10;0.70;;;12.60;99.90;;;;;;5013180;28;20051;-76
2022/05/30 12:46:20;;;;;;;1.67;0.60;;;12.70;99.90;;;;;;4975680;28;20077;-77
2022/05/30 12:48:57;;;;;;;1.95;0.57;;;12.70;99.90;;;;;;5003877;28;20050;-78
2022/05/30 12:51:26;;;;;;;1.05;0.50;;;12.70;99.90;;;;;;4980511;28;20077;-78
2022/05/30 12:53:55;;;;;;;0.80;0.50;;;12.80;99.90;;;;;;4985155;28;20138;-77
2022/05/30 12:56:43;;;;;;;1.27;0.70;;;12.80;99.90;;;;;;4981032;28;20051;-77
2022/05/30 13:00:02;;;;;;;0.80;0.45;;;12.90;99.90;;;;;;5012923;28;20487;-77
2022/05/30 13:03:05;;;;;;;1.92;0.70;;;12.90;99.90;;;;;;4996580;28;20525;-76
2022/05/30 13:05:44;;;;;;;2.08;0.50;;;12.90;99.90;;;;;;4983282;28;20084;-75
2022/05/30 13:08:47;;;;;;;2.13;0.70;;;13.00;99.90;;;;;;4999786;28;20091;-77
2022/05/30 13:11:38;;;;;;;1.00;0.60;;;12.90;99.90;;;;;;4980974;28;20516;-75
2022/05/30 13:14:15;;;;;;;1.73;0.60;;;12.90;99.90;;;;;;5000144;28;20042;-76
2022/05/30 13:16:43;;;;;;;2.08;0.70;;;12.90;99.90;;;;;;5000375;28;20054;-77
2022/05/30 13:19:14;;;;;;;1.60;0.70;;;12.90;99.90;;;;;;4986150;28;20042;-75
2022/05/30 13:21:48;;;;;;;1.05;0.60;;;12.80;99.90;;;;;;4999465;28;20062;-76
2022/05/30 13:24:36;;;;;;;1.52;0.60;;;12.70;99.90;;;;;;5012228;28;20055;-74
2022/05/30 13:27:02;;;;;;;2.78;0.80;;;12.70;99.90;;;;;;5012499;28;20051;-75
2022/05/30 13:29:33;;;;;;;1.95;0.70;;;12.70;99.90;;;;;;4980382;28;20407;-75
2022/05/30 13:32:00;;;;;;;1.70;0.70;;;12.70;99.90;;;;;;4980892;28;20047;-76
2022/05/30 13:34:29;;;;;;;1.92;0.60;;;12.80;99.90;;;;;;4998108;28;20062;-75
2022/05/30 13:36:56;;;;;;;1.52;1.02;;;12.90;99.90;;;;;;4994928;28;20050;-75
2022/05/30 13:39:22;;;;;;;2.95;0.60;;;12.90;99.90;;;;;;4996356;28;20046;-75